• Join FlightAware (Why Join?)
  • Login
  • US Flag 
05:03PM EDT


 

Airport Tracker/Info


-or-


 

Live Flight TrackerFlight Track Log ✈ DAL268 ✈ 01-May-2013 ✈ KJFK - LLBG / TLV

Flight Track Log - Related Links

Times and Time Zones

All times are in EDT time to prevent confusion due to time zone crossing. See the DAL268 flight status page for this flight to view local times or setup timezone preferences in your user account.

Time Position Orientation Groundspeed Altitude Reporting Facility
EDT Latitude Longitude Course Direction KTS MPH feet Rate Location/Type
11:51PM 40.6510 -73.7630 29° Northeast 180 207  Level FlightAware
11:51PM 40.6630 -73.7470 45° Northeast 185 213 600 2,100 Climbing FlightAware
11:51PM 40.6670 -73.7260 76° East 181 208 1,400 1,680 Climbing FlightAware
11:52PM 40.6680 -73.6930 88° East 191 220 2,000 1,080 Climbing FlightAware
11:52PM 40.6650 -73.6690 99° East 209 241 2,300 960 Climbing FlightAware
11:53PM 40.6480 -73.6260 118° Southeast 244 281 2,900 1,080 Climbing FlightAware
11:53PM 40.6320 -73.5900 120° Southeast 267 307 3,400 1,800 Climbing FlightAware
11:54PM 40.6150 -73.5460 117° Southeast 276 318 4,600 2,460 Climbing FlightAware
11:54PM 40.5970 -73.5000 117° Southeast 281 323 5,900 2,400 Climbing FlightAware
11:55PM 40.5820 -73.4630 118° Southeast 290 334 6,800 2,160 Climbing FlightAware
11:55PM 40.5724 -73.4393 118° Southeast 299 344 7,300 2,220 Climbing FlightAware ADS-B
11:55PM 40.5619 -73.4150 120° Southeast 303 349 7,900 2,280 Climbing FlightAware ADS-B
11:55PM 40.5515 -73.3887 117° Southeast 306 352 8,500 2,280 Climbing FlightAware ADS-B
11:56PM 40.5407 -73.3622 118° Southeast 311 358 9,100 2,100 Climbing FlightAware ADS-B
11:56PM 40.5306 -73.3369 118° Southeast 315 362 9,600 1,560 Climbing FlightAware ADS-B
11:56PM 40.5051 -73.2744 118° Southeast 338 389 10,500 1,140 Climbing FlightAware ADS-B
11:57PM 40.4816 -73.2146 117° Southeast 371 427 10,900 720 Climbing FlightAware ADS-B
11:57PM 40.4671 -73.1776 117° Southeast 390 449 11,100 420 Climbing FlightAware ADS-B
11:57PM 40.4613 -73.1574 111° Southeast 400 460 11,100 -540 Level FlightAware ADS-B
11:57PM 40.4602 -73.1501 101° East 402 463 11,000 480 Descending FlightAware ADS-B
11:58PM 40.4601 -73.1281 90° East 404 465 11,200 2,280 Climbing FlightAware ADS-B
11:58PM 40.4638 -73.1093 75° East 397 457 11,700 4,140 Climbing FlightAware ADS-B
11:58PM 40.4724 -73.0759 71° East 385 443 12,800 3,960 Climbing FlightAware ADS-B
11:58PM 40.4764 -73.0555 76° East 384 442 13,300 2,700 Climbing FlightAware ADS-B
11:58PM 40.4781 -73.0252 86° East 386 444 13,800 2,460 Climbing FlightAware ADS-B
11:59PM 40.4779 -72.9806 90° East 387 445 14,600 1,980 Climbing FlightAware ADS-B
11:59PM 40.4828 -72.9363 82° East 389 448 15,100 1,380 Climbing FlightAware ADS-B
11:59PM 40.4887 -72.9138 71° East 393 452 15,300 1,320 Climbing FlightAware ADS-B
11:59PM 40.4959 -72.8942 64° Northeast 397 457 15,500 1,020 Climbing FlightAware ADS-B
11:59PM 40.5041 -72.8755 60° Northeast 402 463 15,600 780 Climbing FlightAware ADS-B
12:00AM 40.5205 -72.8509 49° Northeast 408 470 15,800 1,620 Climbing FlightAware ADS-B
12:00AM 40.5638 -72.7982 43° Northeast 415 478 16,800 1,920 Climbing FlightAware ADS-B
12:01AM 40.6068 -72.7472 42° Northeast 416 479 17,800 1,980 Climbing FlightAware ADS-B
12:01AM 40.6234 -72.7256 45° Northeast 420 483 18,200 1,800 Climbing FlightAware ADS-B
12:01AM 40.6328 -72.7092 53° Northeast 423 487 18,400 1,800 Climbing FlightAware ADS-B
12:01AM 40.6380 -72.6983 58° Northeast 425 489 18,600 1,740 Climbing FlightAware ADS-B
12:01AM 40.6531 -72.6536 66° East 432 497 19,100 1,560 Climbing FlightAware ADS-B
12:02AM 40.6598 -72.6148 77° East 440 506 19,500 1,680 Climbing FlightAware ADS-B
12:02AM 40.6687 -72.5349 82° East 443 510 20,400 1,620 Climbing FlightAware ADS-B
12:03AM 40.6776 -72.4514 82° East 449 517 21,200 1,500 Climbing FlightAware ADS-B
12:03AM 40.6861 -72.3671 82° East 452 520 22,000 1,440 Climbing FlightAware ADS-B
12:04AM 40.6950 -72.2819 82° East 457 526 22,700 1,260 Climbing FlightAware ADS-B
12:04AM 40.7043 -72.1904 82° East 463 533 23,400 1,380 Climbing FlightAware ADS-B
12:05AM 40.7132 -72.1035 82° East 466 536 24,200 1,380 Climbing FlightAware ADS-B
12:05AM 40.7222 -72.0132 82° East 467 537 24,900 1,260 Climbing FlightAware ADS-B
12:06AM 40.7320 -71.9168 82° East 470 541 25,600 1,200 Climbing FlightAware ADS-B
12:06AM 40.7414 -71.8229 82° East 473 544 26,300 1,080 Climbing FlightAware ADS-B
12:07AM 40.7540 -71.6940 83° East 477 549 27,100 660 Climbing FlightAware
12:08AM 40.7660 -71.5850 82° East 477 549 27,300 960 Climbing FlightAware
12:09AM 40.7760 -71.4750 83° East 470 541 28,400 780 Climbing FlightAware
12:09AM 40.7860 -71.3790 82° East 470 541 28,400  Level FlightAware
12:10AM 40.7970 -71.2820 81° East 470 541 28,400  Level FlightAware
12:11AM 40.8100 -71.1610 82° East 470 541 28,400  Level FlightAware
12:11AM 40.8200 -71.0640 82° East 470 541 28,400  Level FlightAware
12:12AM 40.8280 -70.9920 82° East 470 541 28,400 2,040 Level FlightAware
12:13AM 40.8375 -70.8183 82° East 440 506 30,900 1,440 Climbing New York Center
12:14AM 40.8519 -70.6567 83° East 440 506 30,900  Level New York Center
12:15AM 40.8644 -70.4783 85° East 446 513 30,900  Level New York Center
12:16AM 40.8806 -70.3192 82° East 441 507 30,900  Level New York Center
12:17AM 40.8925 -70.1572 84° East 441 507 30,900  Level New York Center
12:18AM 40.9061 -69.9922 84° East 441 507 30,900  Level New York Center
12:19AM 40.9197 -69.8331 83° East 441 507 30,900  Level New York Center
12:20AM 40.9328 -69.6681 84° East 441 507 30,900  Level New York Center
12:21AM 40.9458 -69.5058 84° East 447 514 30,900  Level New York Center
12:22AM 40.9589 -69.3464 84° East 442 509 30,900  Level New York Center
12:23AM 40.9733 -69.1811 83° East 442 509 30,900  Level New York Center
12:24AM 40.9836 -69.0214 85° East 442 509 30,900  Level New York Center
12:25AM 40.9939 -68.8564 85° East 442 509 30,900  Level New York Center
12:26AM 41.0078 -68.6883 84° East 447 514 30,900  Level New York Center
12:27AM 41.0172 -68.5231 86° East 447 514 30,900  Level New York Center
12:28AM 41.0286 -68.3578 85° East 447 514 30,900  Level New York Center
12:29AM 41.0419 -68.1950 84° East 447 514 30,900  Level New York Center
12:30AM 41.0531 -68.0294 85° East 442 509 30,900  Level New York Center
12:32AM 41.0697 -67.6925 86° East  Level FlightAware Approximate
12:36AM 41.1167 -67.0000 78° East 476 548 31,000  Level New York Oceanic (ODAPS)
12:36AM 41.1333 -66.9167 78° East 477 549 31,000  Level New York Oceanic (ODAPS)
12:38AM 41.1833 -66.5667 78° East 477 549 31,000  Level New York Oceanic (ODAPS)
12:39AM 41.3245 -66.5473 58° Northeast  Level FlightAware Approximate
12:40AM 41.3931 -66.3965 59° Northeast  Level FlightAware Approximate
12:41AM 41.4614 -66.2453 59° Northeast  Level FlightAware Approximate
12:42AM 41.2674 -66.0408 79° East 477 549 31,000  Level FlightAware Transoceanic
12:43AM 41.2935 -65.8652 79° East 477 549 31,000  Level FlightAware Transoceanic
12:44AM 41.3192 -65.6895 79° East 477 549 31,000  Level FlightAware Transoceanic
12:45AM 41.3617 -65.3700 79° East 477 549 31,000  Level FlightAware Transoceanic
12:46AM 41.3862 -65.1986 79° East 477 549 31,000  Level FlightAware Transoceanic
12:47AM 41.4104 -65.0270 79° East 477 549 31,000  Level FlightAware Transoceanic
12:48AM 41.4343 -64.8552 80° East 477 549 31,000  Level FlightAware Transoceanic
12:49AM 41.4580 -64.6834 80° East 477 549 31,000  Level FlightAware Transoceanic
12:50AM 41.4815 -64.5114 80° East 477 549 31,000  Level FlightAware Transoceanic
12:51AM 41.5047 -64.3393 80° East 477 549 31,000  Level FlightAware Transoceanic
12:52AM 41.5276 -64.1671 80° East 477 549 31,000  Level FlightAware Transoceanic
12:53AM 41.5503 -63.9947 80° East 477 549 31,000  Level FlightAware Transoceanic
12:54AM 41.5727 -63.8222 80° East 477 549 31,000  Level FlightAware Transoceanic
12:55AM 41.5949 -63.6497 80° East 477 549 31,000  Level FlightAware Transoceanic
12:56AM 41.6168 -63.4770 80° East 477 549 31,000  Level FlightAware Transoceanic
12:56AM 41.6167 -63.5167 81° East 473 544 31,000  Level New York Oceanic (ODAPS)
12:57AM 41.6384 -63.3041 81° East 477 549 31,000  Level FlightAware Transoceanic
12:58AM 41.6598 -63.1312 81° East 477 549 31,000  Level FlightAware Transoceanic
12:59AM 41.6809 -62.9581 81° East 477 549 31,000  Level FlightAware Transoceanic
01:00AM 41.7018 -62.7850 81° East 477 549 31,000  Level FlightAware Transoceanic
01:01AM 41.7224 -62.6117 81° East 477 549 31,000  Level FlightAware Transoceanic
01:02AM 41.7427 -62.4383 81° East 477 549 31,000  Level FlightAware Transoceanic
01:03AM 41.7429 -62.4662 81° East 473 544 31,000  Level FlightAware Transoceanic
01:04AM 41.7630 -62.2907 81° East 473 544 31,000  Level FlightAware Transoceanic
01:05AM 41.7829 -62.1151 81° East 473 544 31,000  Level FlightAware Transoceanic
01:06AM 41.8024 -61.9394 82° East 473 544 31,000  Level FlightAware Transoceanic
01:07AM 41.8217 -61.7636 82° East 473 544 31,000  Level FlightAware Transoceanic
01:08AM 41.8408 -61.5877 82° East 473 544 31,000  Level FlightAware Transoceanic
01:09AM 41.8596 -61.4117 82° East 473 544 31,000  Level FlightAware Transoceanic
01:10AM 41.8781 -61.2356 82° East 473 544 31,000  Level FlightAware Transoceanic
01:11AM 41.8963 -61.0593 82° East 473 544 31,000  Level FlightAware Transoceanic
01:12AM 41.9142 -60.8830 82° East 473 544 31,000  Level FlightAware Transoceanic
01:13AM 41.9319 -60.7066 82° East 473 544 31,000  Level FlightAware Transoceanic
01:14AM 41.9494 -60.5301 83° East 473 544 31,000  Level FlightAware Transoceanic
01:15AM 41.9665 -60.3535 83° East 473 544 31,000  Level FlightAware Transoceanic
01:16AM 41.9834 -60.1768 83° East 473 544 31,000  Level FlightAware Transoceanic
01:17AM 42.0000 -60.0000 71° East 473 544 31,000  Level FlightAware Transoceanic
01:17AM 42.0000 -60.0333 90° East 568 654 31,000  Level New York Oceanic (ODAPS)
01:17AM 42.0000 -60.0000 71° East 484 557 31,000  Level New York Oceanic (ODAPS)
01:18AM 42.0424 -59.8304 71° East 473 544 31,000  Level FlightAware Transoceanic
01:19AM 42.0846 -59.6606 72° East 473 544 31,000  Level FlightAware Transoceanic
01:20AM 42.1265 -59.4906 72° East 473 544 31,000  Level FlightAware Transoceanic
01:21AM 42.1682 -59.3204 72° East 473 544 31,000  Level FlightAware Transoceanic
01:22AM 42.2096 -59.1499 72° East 473 544 31,000  Level FlightAware Transoceanic
01:23AM 42.2508 -58.9792 72° East 484 557 31,000  Level FlightAware Transoceanic
01:24AM 42.2917 -58.8083 72° East 484 557 31,000  Level FlightAware Transoceanic
01:25AM 42.3324 -58.6372 72° East 484 557 31,000  Level FlightAware Transoceanic
01:26AM 42.3728 -58.4659 72° East 484 557 31,000  Level FlightAware Transoceanic
01:27AM 42.4130 -58.2943 72° East 484 557 31,000  Level FlightAware Transoceanic
01:28AM 42.4529 -58.1225 73° East 484 557 31,000  Level FlightAware Transoceanic
01:29AM 42.4925 -57.9505 73° East 484 557 31,000  Level FlightAware Transoceanic
01:30AM 42.5319 -57.7783 73° East 484 557 31,000  Level FlightAware Transoceanic
01:31AM 42.5710 -57.6058 73° East 484 557 31,000  Level FlightAware Transoceanic
01:32AM 42.6099 -57.4332 73° East 484 557 31,000  Level FlightAware Transoceanic
01:33AM 42.6485 -57.2603 73° East 484 557 31,000  Level FlightAware Transoceanic
01:34AM 42.6869 -57.0872 73° East 484 557 31,000  Level FlightAware Transoceanic
01:35AM 42.7249 -56.9139 73° East 484 557 31,000  Level FlightAware Transoceanic
01:36AM 42.7628 -56.7404 74° East 484 557 31,000  Level FlightAware Transoceanic
01:37AM 42.8003 -56.5666 74° East 484 557 31,000  Level FlightAware Transoceanic
01:37AM 42.8000 -56.6000 74° East 486 559 31,000  Level New York Oceanic (ODAPS)
01:38AM 42.8376 -56.3927 74° East 484 557 31,000  Level FlightAware Transoceanic
01:39AM 42.8747 -56.2186 74° East 484 557 31,000  Level FlightAware Transoceanic
01:40AM 42.9114 -56.0442 74° East 484 557 31,000  Level FlightAware Transoceanic
01:41AM 42.9479 -55.8697 74° East 484 557 31,000  Level FlightAware Transoceanic
01:42AM 42.9842 -55.6949 74° East 484 557 31,000  Level FlightAware Transoceanic
01:43AM 43.0201 -55.5480 74° East 486 559 31,000  Level FlightAware Transoceanic
01:44AM 43.0559 -55.3719 75° East 486 559 31,000  Level FlightAware Transoceanic
01:45AM 43.0914 -55.1956 75° East 486 559 31,000  Level FlightAware Transoceanic
01:46AM 43.1266 -55.0192 75° East 486 559 31,000  Level FlightAware Transoceanic
01:47AM 43.1615 -54.8425 75° East 486 559 31,000  Level FlightAware Transoceanic
01:48AM 43.1962 -54.6656 75° East 486 559 31,000  Level FlightAware Transoceanic
01:49AM 43.2306 -54.4885 75° East 486 559 31,000  Level FlightAware Transoceanic
01:50AM 43.2647 -54.3112 75° East 486 559 31,000  Level FlightAware Transoceanic
01:51AM 43.2986 -54.1338 75° East 486 559 31,000  Level FlightAware Transoceanic
01:52AM 43.3321 -53.9561 76° East 486 559 31,000  Level FlightAware Transoceanic
01:53AM 43.3654 -53.7782 76° East 486 559 31,000  Level FlightAware Transoceanic
01:54AM 43.3984 -53.6002 76° East 486 559 31,000  Level FlightAware Transoceanic
01:55AM 43.4312 -53.4219 76° East 486 559 31,000  Level FlightAware Transoceanic
01:56AM 43.4637 -53.2435 76° East 486 559 31,000  Level FlightAware Transoceanic
01:57AM 43.4958 -53.0648 76° East 486 559 31,000  Level FlightAware Transoceanic
01:57AM 43.5167 -52.9833 76° East 483 556 31,000  Level New York Oceanic (ODAPS)
01:58AM 43.5278 -52.8860 76° East 486 559 31,000  Level FlightAware Transoceanic
01:59AM 43.5594 -52.7070 76° East 486 559 31,000  Level FlightAware Transoceanic
02:00AM 43.5908 -52.5278 76° East 486 559 31,000  Level FlightAware Transoceanic
02:01AM 43.6218 -52.3484 77° East 486 559 31,000  Level FlightAware Transoceanic
02:02AM 43.6526 -52.1688 77° East 486 559 31,000  Level FlightAware Transoceanic
02:03AM 43.6831 -51.9891 77° East 486 559 31,000  Level FlightAware Transoceanic
02:04AM 43.7070 -51.8703 77° East 483 556 31,000  Level FlightAware Transoceanic
02:05AM 43.7377 -51.6841 77° East 483 556 31,000  Level FlightAware Transoceanic
02:06AM 43.7680 -51.4977 77° East 483 556 31,000  Level FlightAware Transoceanic
02:07AM 43.7981 -51.3111 77° East 483 556 31,000  Level FlightAware Transoceanic
02:08AM 43.8279 -51.1244 78° East 483 556 31,000  Level FlightAware Transoceanic
02:09AM 43.8573 -50.9374 78° East 483 556 31,000  Level FlightAware Transoceanic
02:10AM 43.8865 -50.7503 78° East 483 556 31,000  Level FlightAware Transoceanic
02:11AM 43.9153 -50.5630 78° East 483 556 31,000  Level FlightAware Transoceanic
02:12AM 43.9438 -50.3755 78° East 483 556 31,000  Level FlightAware Transoceanic
02:13AM 43.9721 -50.1878 78° East 483 556 31,000  Level FlightAware Transoceanic
02:14AM 44.0000 -50.0000 63° Northeast 483 556 31,000  Level FlightAware Transoceanic
02:14AM 44.0000 -50.0000 63° Northeast 492 566 31,000  Level New York Oceanic (ODAPS)
02:15AM 44.0621 -49.8278 63° Northeast 483 556 31,000  Level FlightAware Transoceanic
02:16AM 44.1239 -49.6553 64° Northeast 483 556 31,000  Level FlightAware Transoceanic
02:17AM 44.1854 -49.4823 64° Northeast 483 556 31,000  Level FlightAware Transoceanic
02:18AM 44.2467 -49.3091 64° Northeast 483 556 31,000  Level FlightAware Transoceanic
02:18AM 44.2167 -49.3667 64° Northeast 496 571 31,000  Level New York Oceanic (ODAPS)
02:19AM 44.3078 -49.1354 64° Northeast 483 556 31,000  Level FlightAware Transoceanic
02:20AM 44.3620 -48.9801 64° Northeast 492 566 31,000  Level FlightAware Transoceanic
02:21AM 44.4215 -48.8089 64° Northeast 492 566 31,000  Level FlightAware Transoceanic
02:22AM 44.4807 -48.6373 64° Northeast 492 566 31,000  Level FlightAware Transoceanic
02:23AM 44.5396 -48.4654 64° Northeast 492 566 31,000  Level FlightAware Transoceanic
02:24AM 44.5759 -48.3338 64° Northeast 496 571 31,000  Level FlightAware Transoceanic
02:25AM 44.6349 -48.1605 65° Northeast 496 571 31,000  Level FlightAware Transoceanic
02:26AM 44.6936 -47.9867 65° Northeast 496 571 31,000  Level FlightAware Transoceanic
02:27AM 44.7520 -47.8127 65° Northeast 496 571 31,000  Level FlightAware Transoceanic
02:28AM 44.8102 -47.6382 65° Northeast 496 571 31,000  Level FlightAware Transoceanic
02:29AM 44.8681 -47.4635 65° Northeast 496 571 31,000  Level FlightAware Transoceanic
02:30AM 44.9257 -47.2883 65° Northeast 496 571 31,000  Level FlightAware Transoceanic
02:31AM 44.9831 -47.1129 65° Northeast 496 571 31,000  Level FlightAware Transoceanic
02:32AM 45.0402 -46.9370 65° Northeast 496 571 31,000  Level FlightAware Transoceanic
02:33AM 45.0970 -46.7608 66° East 496 571 31,000  Level FlightAware Transoceanic
02:34AM 45.1536 -46.5843 66° East 496 571 31,000  Level FlightAware Transoceanic
02:35AM 45.2099 -46.4074 66° East 496 571 31,000  Level FlightAware Transoceanic
02:36AM 45.2659 -46.2302 66° East 496 571 31,000  Level FlightAware Transoceanic
02:37AM 45.3217 -46.0526 66° East 496 571 31,000  Level FlightAware Transoceanic
02:38AM 45.3771 -45.8747 66° East 496 571 31,000  Level FlightAware Transoceanic
02:39AM 45.4323 -45.6964 66° East 496 571 31,000  Level FlightAware Transoceanic
02:40AM 45.4872 -45.5178 66° East 496 571 31,000  Level FlightAware Transoceanic
02:41AM 45.5419 -45.3388 67° East 496 571 31,000  Level FlightAware Transoceanic
02:42AM 45.5962 -45.1595 67° East 496 571 31,000  Level FlightAware Transoceanic
02:43AM 45.6503 -44.9798 67° East 496 571 31,000  Level FlightAware Transoceanic
02:44AM 45.7041 -44.7998 67° East 496 571 31,000  Level FlightAware Transoceanic
02:45AM 45.7576 -44.6194 67° East 496 571 31,000  Level FlightAware Transoceanic
02:46AM 45.8108 -44.4388 67° East 496 571 31,000  Level FlightAware Transoceanic
02:47AM 45.8637 -44.2577 67° East 496 571 31,000  Level FlightAware Transoceanic
02:48AM 45.9164 -44.0763 67° East 496 571 31,000  Level FlightAware Transoceanic
02:49AM 45.9687 -43.8946 68° East 496 571 31,000  Level FlightAware Transoceanic
02:50AM 46.0208 -43.7125 68° East 496 571 31,000  Level FlightAware Transoceanic
02:51AM 46.0726 -43.5301 68° East 496 571 31,000  Level FlightAware Transoceanic
02:52AM 46.1241 -43.3473 68° East 496 571 31,000  Level FlightAware Transoceanic
02:53AM 46.1753 -43.1642 68° East 496 571 31,000  Level FlightAware Transoceanic
02:54AM 46.2262 -42.9808 68° East 496 571 31,000  Level FlightAware Transoceanic
02:55AM 46.2768 -42.7970 68° East 496 571 31,000  Level FlightAware Transoceanic
02:56AM 46.3271 -42.6128 68° East 496 571 31,000  Level FlightAware Transoceanic
02:57AM 46.3771 -42.4284 69° East 496 571 31,000  Level FlightAware Transoceanic
02:58AM 46.4269 -42.2436 69° East 496 571 31,000  Level FlightAware Transoceanic
02:59AM 46.4763 -42.0584 69° East 496 571 31,000  Level FlightAware Transoceanic
03:00AM 46.5254 -41.8730 69° East 496 571 31,000  Level FlightAware Transoceanic
03:01AM 46.5742 -41.6872 69° East 496 571 31,000  Level FlightAware Transoceanic
03:02AM 46.6228 -41.5010 69° East 496 571 31,000  Level FlightAware Transoceanic
03:03AM 46.6710 -41.3145 69° East 496 571 31,000  Level FlightAware Transoceanic
03:04AM 46.7189 -41.1278 70° East 496 571 31,000  Level FlightAware Transoceanic
03:05AM 46.7665 -40.9406 70° East 496 571 31,000  Level FlightAware Transoceanic
03:06AM 46.8138 -40.7531 70° East 496 571 31,000  Level FlightAware Transoceanic
03:07AM 46.8608 -40.5653 70° East 496 571 31,000  Level FlightAware Transoceanic
03:08AM 46.9075 -40.3772 70° East 496 571 31,000  Level FlightAware Transoceanic
03:09AM 46.9539 -40.1888 70° East 496 571 31,000  Level FlightAware Transoceanic
03:10AM 47.0000 -40.0000 70° East 496 571 31,000  Level FlightAware Transoceanic
03:11AM 47.0514 -39.7957 70° East 496 571 31,000  Level FlightAware Transoceanic
03:12AM 47.1024 -39.5909 70° East 496 571 31,000  Level FlightAware Transoceanic
03:13AM 47.1530 -39.3858 70° East 496 571 31,000  Level FlightAware Transoceanic
03:14AM 47.2033 -39.1803 70° East 496 571 31,000  Level FlightAware Transoceanic
03:15AM 47.2532 -38.9744 70° East 496 571 31,000  Level FlightAware Transoceanic
03:16AM 47.3028 -38.7681 71° East 496 571 31,000  Level FlightAware Transoceanic
03:17AM 47.3519 -38.5614 71° East 496 571 31,000  Level FlightAware Transoceanic
03:18AM 47.4007 -38.3544 71° East 496 571 31,000  Level FlightAware Transoceanic
03:19AM 47.4492 -38.1469 71° East 496 571 31,000  Level FlightAware Transoceanic
03:20AM 47.4972 -37.9391 71° East 496 571 31,000  Level FlightAware Transoceanic
03:21AM 47.5449 -37.7309 71° East 496 571 31,000  Level FlightAware Transoceanic
03:22AM 47.5922 -37.5224 71° East 496 571 31,000  Level FlightAware Transoceanic
03:23AM 47.6391 -37.3134 72° East 496 571 31,000  Level FlightAware Transoceanic
03:24AM 47.6856 -37.1041 72° East 496 571 31,000  Level FlightAware Transoceanic
03:25AM 47.7318 -36.8944 72° East 496 571 31,000  Level FlightAware Transoceanic
03:26AM 47.7776 -36.6843 72° East 496 571 31,000  Level FlightAware Transoceanic
03:27AM 47.8230 -36.4739 72° East 496 571 31,000  Level FlightAware Transoceanic
03:28AM 47.8680 -36.2631 72° East 496 571 31,000  Level FlightAware Transoceanic
03:29AM 47.9126 -36.0519 73° East 496 571 31,000  Level FlightAware Transoceanic
03:30AM 47.9568 -35.8404 73° East 496 571 31,000  Level FlightAware Transoceanic
03:31AM 48.0007 -35.6285 73° East 496 571 31,000  Level FlightAware Transoceanic
03:32AM 48.0441 -35.4162 73° East 496 571 31,000  Level FlightAware Transoceanic
03:33AM 48.0872 -35.2036 73° East 496 571 31,000  Level FlightAware Transoceanic
03:34AM 48.1298 -34.9907 73° East 496 571 31,000  Level FlightAware Transoceanic
03:35AM 48.1721 -34.7773 74° East 496 571 31,000  Level FlightAware Transoceanic
03:36AM 48.2140 -34.5637 74° East 496 571 31,000  Level FlightAware Transoceanic
03:37AM 48.2555 -34.3497 74° East 496 571 31,000  Level FlightAware Transoceanic
03:38AM 48.2966 -34.1353 74° East 496 571 31,000  Level FlightAware Transoceanic
03:39AM 48.3372 -33.9206 74° East 496 571 31,000  Level FlightAware Transoceanic
03:40AM 48.3775 -33.7056 74° East 496 571 31,000  Level FlightAware Transoceanic
03:41AM 48.4174 -33.4902 74° East 496 571 31,000  Level FlightAware Transoceanic
03:42AM 48.4569 -33.2744 75° East 496 571 31,000  Level FlightAware Transoceanic
03:43AM 48.4960 -33.0584 75° East 496 571 31,000  Level FlightAware Transoceanic
03:44AM 48.5346 -32.8420 75° East 496 571 31,000  Level FlightAware Transoceanic
03:45AM 48.5729 -32.6253 75° East 496 571 31,000  Level FlightAware Transoceanic
03:46AM 48.6108 -32.4082 75° East 496 571 31,000  Level FlightAware Transoceanic
03:47AM 48.6482 -32.1909 75° East 496 571 31,000  Level FlightAware Transoceanic
03:48AM 48.6852 -31.9732 76° East 496 571 31,000  Level FlightAware Transoceanic
03:49AM 48.7219 -31.7552 76° East 496 571 31,000  Level FlightAware Transoceanic
03:50AM 48.7581 -31.5369 76° East 496 571 31,000  Level FlightAware Transoceanic
03:51AM 48.7939 -31.3182 76° East 496 571 31,000  Level FlightAware Transoceanic
03:52AM 48.8293 -31.0993 76° East 496 571 31,000  Level FlightAware Transoceanic
03:53AM 48.8643 -30.8800 76° East 496 571 31,000  Level FlightAware Transoceanic
03:54AM 48.8988 -30.6605 77° East 496 571 31,000  Level FlightAware Transoceanic
03:55AM 48.9330 -30.4406 77° East 496 571 31,000  Level FlightAware Transoceanic
03:56AM 48.9667 -30.2204 77° East 496 571 31,000  Level FlightAware Transoceanic
03:57AM 48.9801 -30.0183 84° East  Level Estimated
03:58AM 48.9931 -29.8161 84° East  Level Estimated
03:59AM 49.0058 -29.6137 84° East  Level Estimated
04:00AM 49.0182 -29.4110 85° East  Level Estimated
04:01AM 49.0302 -29.2081 85° East  Level Estimated
04:02AM 49.0418 -29.0051 85° East  Level Estimated
04:03AM 49.0531 -28.8021 85° East  Level Estimated
04:04AM 49.0640 -28.5989 85° East  Level Estimated
04:05AM 49.0746 -28.3957 85° East  Level Estimated
04:06AM 49.0848 -28.1924 86° East  Level Estimated
04:07AM 49.0946 -27.9890 86° East  Level Estimated
04:08AM 49.1041 -27.7855 86° East  Level Estimated
04:09AM 49.1133 -27.5819 86° East  Level Estimated
04:10AM 49.1220 -27.3783 86° East  Level Estimated
04:11AM 49.1305 -27.1746 86° East  Level Estimated
04:12AM 49.1385 -26.9708 86° East  Level Estimated
04:13AM 49.1462 -26.7670 87° East  Level Estimated
04:14AM 49.1535 -26.5631 87° East  Level Estimated
04:15AM 49.1605 -26.3592 87° East  Level Estimated
04:16AM 49.1672 -26.1551 87° East  Level Estimated
04:17AM 49.1734 -25.9511 87° East  Level Estimated
04:18AM 49.1794 -25.7470 87° East  Level Estimated
04:19AM 49.1849 -25.5428 88° East  Level Estimated
04:20AM 49.1901 -25.3386 88° East  Level Estimated
04:21AM 49.1949 -25.1344 88° East  Level Estimated
04:22AM 49.1994 -24.9301 88° East  Level Estimated
04:23AM 49.2035 -24.7257 88° East  Level Estimated
04:24AM 49.2072 -24.5214 88° East  Level Estimated
04:25AM 49.2106 -24.3170 88° East  Level Estimated
04:26AM 49.2137 -24.1126 89° East  Level Estimated
04:27AM 49.2163 -23.9082 89° East  Level Estimated
04:28AM 49.2186 -23.7037 89° East  Level Estimated
04:29AM 49.2206 -23.4993 89° East  Level Estimated
04:30AM 49.2221 -23.2948 89° East  Level Estimated
04:31AM 49.2234 -23.0903 89° East  Level Estimated
04:32AM 49.2242 -22.8858 90° East  Level Estimated
04:33AM 49.2247 -22.6812 90° East  Level Estimated
04:34AM 49.2249 -22.4767 90° East  Level Estimated
04:35AM 49.2247 -22.2722 90° East  Level Estimated
04:36AM 49.2241 -22.0677 90° East  Level Estimated
04:37AM 49.2231 -21.8632 90° East  Level Estimated
04:38AM 49.2218 -21.6587 90° East  Level Estimated
04:39AM 49.2201 -21.4542 91° East  Level Estimated
04:40AM 49.2181 -21.2498 91° East  Level Estimated
04:41AM 49.2157 -21.0453 91° East  Level Estimated
04:42AM 49.2130 -20.8409 91° East  Level Estimated
04:43AM 49.2099 -20.6365 91° East  Level Estimated
04:44AM 49.2064 -20.4321 91° East  Level Estimated
04:45AM 49.2026 -20.2278 92° East  Level Estimated
04:46AM 49.1984 -20.0235 92° East  Level Estimated
04:47AM 49.1938 -19.8192 92° East  Level Estimated
04:48AM 49.1889 -19.6149 92° East  Level Estimated
04:49AM 49.1836 -19.4107 92° East  Level Estimated
04:50AM 49.1780 -19.2066 92° East  Level Estimated
04:51AM 49.1720 -19.0025 92° East  Level Estimated
04:52AM 49.1657 -18.7984 93° East  Level Estimated
04:53AM 49.1590 -18.5944 93° East  Level Estimated
04:54AM 49.1519 -18.3905 93° East  Level Estimated
04:55AM 49.1445 -18.1866 93° East  Level Estimated
04:56AM 49.1367 -17.9828 93° East  Level Estimated
04:57AM 49.1285 -17.7790 93° East  Level Estimated
04:58AM 49.1200 -17.5753 94° East  Level Estimated
04:59AM 49.1111 -17.3717 94° East  Level Estimated
05:00AM 49.1019 -17.1682 94° East  Level Estimated
05:01AM 49.0924 -16.9647 94° East  Level Estimated
05:02AM 49.0824 -16.7614 94° East  Level Estimated
05:03AM 49.0721 -16.5581 94° East  Level Estimated
05:04AM 49.0615 -16.3549 94° East  Level Estimated
05:05AM 49.0505 -16.1517 95° East  Level Estimated
05:06AM 49.0391 -15.9487 95° East  Level Estimated
05:07AM 49.0274 -15.7458 95° East  Level Estimated
05:08AM 49.0153 -15.5429 95° East  Level Estimated
05:09AM 49.0029 -15.3402 95° East  Level Estimated
05:10AM 48.9901 -15.1375 95° East  Level Estimated
05:11AM 48.9769 -14.9350 96° East  Level Estimated
05:12AM 48.9635 -14.7326 96° East  Level Estimated
05:13AM 48.9496 -14.5302 96° East  Level Estimated
05:14AM 48.9354 -14.3280 96° East  Level Estimated
05:15AM 48.9208 -14.1259 96° East  Level Estimated
05:16AM 48.9059 -13.9240 96° East  Level Estimated
05:17AM 48.8907 -13.7221 96° East  Level Estimated
05:18AM 48.8751 -13.5204 97° East  Level Estimated
05:19AM 48.8591 -13.3188 97° East  Level Estimated
05:20AM 48.8428 -13.1174 97° East  Level Estimated
05:21AM 48.8261 -12.9160 97° East  Level Estimated
05:22AM 48.8091 -12.7149 97° East  Level Estimated
05:23AM 48.7917 -12.5138 97° East  Level Estimated
05:24AM 48.7740 -12.3129 98° East  Level Estimated
05:25AM 48.7559 -12.1121 98° East  Level Estimated
05:26AM 48.7375 -11.9115 98° East  Level Estimated
05:27AM 48.7188 -11.7110 98° East  Level Estimated
05:28AM 48.6996 -11.5107 98° East  Level Estimated
05:29AM 48.6802 -11.3105 98° East  Level Estimated
05:30AM 48.6604 -11.1105 98° East  Level Estimated
05:31AM 48.6402 -10.9106 99° East  Level Estimated
05:32AM 48.6198 -10.7109 99° East  Level Estimated
05:32AM 49.2155 -8.9863 99° East 486 559 31,400  Level FlightAware UK
05:32AM 49.2058 -8.9246 103° East 486 559 31,400  Level FlightAware UK
05:33AM 49.1959 -8.8632 104° East 486 559 31,400  Level FlightAware UK
05:33AM 49.1860 -8.8018 104° East 484 557 31,400  Level FlightAware UK
05:33AM 49.1759 -8.7405 104° East 484 557 31,400  Level FlightAware UK
05:33AM 49.1661 -8.6794 104° East 482 555 31,400  Level FlightAware UK
05:34AM 49.1561 -8.6182 104° East 482 555 31,400  Level FlightAware UK
05:34AM 49.1460 -8.5571 104° East 484 557 31,400  Level FlightAware UK
05:34AM 49.1358 -8.4959 104° East 484 557 31,400  Level FlightAware UK
05:35AM 49.1256 -8.4348 104° East 486 559 31,400  Level FlightAware UK
05:35AM 49.1154 -8.3737 104° East 486 559 31,400  Level FlightAware UK
05:35AM 49.1051 -8.3125 104° East 484 557 31,400  Level FlightAware UK
05:36AM 49.0948 -8.2513 104° East 484 557 31,400  Level FlightAware UK
05:36AM 49.0845 -8.1901 104° East 486 559 31,400 2,580 Level FlightAware UK
05:36AM 49.0760 -8.1390 104° East 499 574 33,000  Climbing FlightAware
05:36AM 49.0638 -8.0676 104° East 482 555 31,400 -2,760 Descending FlightAware UK
05:37AM 49.0513 -8.0072 108° East 484 557 31,400 4,140 Level FlightAware UK
05:37AM 49.0470 -7.9970 108° East 502 578 33,000  Climbing FlightAware
05:37AM 49.0279 -7.9287 108° East 486 559 31,400 -2,640 Descending FlightAware UK
05:37AM 49.0098 -7.8712 116° Southeast 490 564 31,400 3,660 Level FlightAware UK
05:38AM 49.0050 -7.8560 116° Southeast 502 578 33,000  Climbing FlightAware
05:38AM 48.9857 -7.7942 116° Southeast 488 562 31,400 -2,880 Descending FlightAware UK
05:38AM 48.9680 -7.7366 115° Southeast 488 562 31,400 3,960 Level FlightAware UK
05:38AM 48.9650 -7.7280 115° Southeast 502 578 33,000 720 Climbing FlightAware
05:39AM 48.9445 -7.6596 115° Southeast 488 562 31,700 -1,500 Descending FlightAware UK
05:39AM 48.9267 -7.6021 115° Southeast 488 562 32,100 5,400 Climbing FlightAware UK
05:39AM 48.9250 -7.6000 115° Southeast 502 578 33,700 1,200 Climbing FlightAware
05:39AM 48.9027 -7.5257 115° Southeast 484 557 32,600 -1,320 Descending FlightAware UK
05:40AM 48.8845 -7.4686 116° Southeast 484 557 32,900 4,800 Climbing FlightAware UK
05:40AM 48.8800 -7.4570 116° Southeast 504 580 34,600 1,200 Climbing FlightAware
05:40AM 48.8603 -7.3923 116° Southeast 482 555 33,400 -2,100 Descending FlightAware UK
05:40AM 48.8420 -7.3350 116° Southeast 484 557 33,400 4,140 Level FlightAware UK
05:40AM 48.8390 -7.3260 116° Southeast 507 583 35,000  Climbing FlightAware
05:41AM 48.8177 -7.2584 116° Southeast 484 557 33,400 -2,640 Descending FlightAware UK
05:41AM 48.7995 -7.2007 116° Southeast 484 557 33,400 3,660 Level FlightAware UK
05:41AM 48.7940 -7.1850 116° Southeast 507 583 35,000  Climbing FlightAware
05:41AM 48.7750 -7.1238 116° Southeast 486 559 33,400 -2,880 Descending FlightAware UK
05:42AM 48.7565 -7.0663 116° Southeast 488 562 33,400 3,960 Level FlightAware UK
05:42AM 48.7540 -7.0600 116° Southeast 507 583 35,000  Climbing FlightAware
05:42AM 48.7318 -6.9897 116° Southeast 486 559 33,400 -2,700 Descending FlightAware UK
05:42AM 48.7133 -6.9323 116° Southeast 486 559 33,400 4,320 Level FlightAware UK
05:42AM 48.7120 -6.9300 116° Southeast 504 580 35,000  Climbing FlightAware
05:43AM 48.6884 -6.8553 116° Southeast 490 564 33,400 -2,580 Descending FlightAware UK
05:43AM 48.6699 -6.7983 116° Southeast 486 559 33,400 3,840 Level FlightAware UK
05:43AM 48.6670 -6.7900 116° Southeast 502 578 35,000  Climbing FlightAware
05:43AM 48.6455 -6.7222 116° Southeast 482 555 33,400 -2,760 Descending FlightAware UK
05:44AM 48.6271 -6.6654 116° Southeast 482 555 33,400 4,140 Level FlightAware UK
05:44AM 48.6260 -6.6650 116° Southeast 502 578 35,000  Climbing FlightAware
05:44AM 48.6023 -6.5903 116° Southeast 484 557 33,400 -2,640 Descending FlightAware UK
05:44AM 48.5838 -6.5338 116° Southeast 484 557 33,400 3,660 Level FlightAware UK
05:45AM 48.5830 -6.5290 116° Southeast 501 577 35,000  Climbing FlightAware
05:45AM 48.5592 -6.4587 116° Southeast 484 557 33,400 -2,880 Descending FlightAware UK
05:45AM 48.5407 -6.4024 116° Southeast 484 557 33,400 3,960 Level FlightAware UK
05:45AM 48.5420 -6.4070 116° Southeast 502 578 35,000  Climbing FlightAware
05:46AM 48.5160 -6.3274 116° Southeast 484 557 33,400 -2,700 Descending FlightAware UK
05:46AM 48.4976 -6.2711 116° Southeast 484 557 33,400 4,320 Level FlightAware UK
05:46AM 48.4980 -6.2730 116° Southeast 501 577 35,000  Climbing FlightAware
05:46AM 48.4666 -6.1777 116° Southeast 484 557 33,400  Descending FlightAware UK
05:47AM 48.4580 -6.1510 116° Southeast 500 575 35,000  Climbing FlightAware
05:47AM 48.4356 -6.0844 116° Southeast 482 555 33,400 -2,880 Descending FlightAware UK
05:47AM 48.4169 -6.0285 117° Southeast 482 555 33,400 3,300 Level FlightAware UK
05:47AM 48.4140 -6.0200 117° Southeast 500 575 35,000  Climbing FlightAware
05:48AM 48.3794 -5.9165 117° Southeast 482 555 33,400  Descending FlightAware UK
05:48AM 48.3680 -5.8830 117° Southeast 502 578 35,000  Climbing FlightAware
05:48AM 48.3355 -5.7852 117° Southeast 484 557 33,400  Descending FlightAware UK
05:49AM 48.3220 -5.7460 117° Southeast 503 579 35,000  Climbing FlightAware
05:49AM 48.2787 -5.6172 117° Southeast 482 555 33,400  Descending FlightAware UK
05:49AM 48.2790 -5.6180 117° Southeast 504 580 35,000  Climbing FlightAware
05:50AM 48.2533 -5.5425 117° Southeast 484 557 33,400  Descending FlightAware UK
05:50AM 48.2310 -5.4780 117° Southeast 505 581 35,000  Climbing FlightAware
05:50AM 48.2086 -5.4117 117° Southeast 484 557 33,400  Descending FlightAware UK
05:51AM 48.1880 -5.3540 117° Southeast 505 581 35,000 1,200 Climbing FlightAware
05:52AM 48.1360 -5.1990 117° Southeast 505 581 35,000  Level FlightAware
05:52AM 48.0860 -5.0590 118° Southeast 505 581 35,000  Level FlightAware
05:53AM 48.0280 -4.8910 117° Southeast 506 582 35,000  Level FlightAware
05:54AM 47.9800 -4.7520 117° Southeast 506 582 35,000  Level FlightAware
05:55AM 47.9190 -4.5790 118° Southeast 505 581 35,000  Level FlightAware
05:56AM 47.8520 -4.3890 118° Southeast 505 581 35,000  Level FlightAware
05:56AM 47.8200 -4.3030 119° Southeast 504 580 35,000  Level FlightAware
05:57AM 47.7600 -4.1320 118° Southeast 502 578 35,000  Level FlightAware
05:58AM 47.7220 -4.0280 118° Southeast 502 578 35,000  Level FlightAware
05:59AM 47.6710 -3.8850 118° Southeast 502 578 35,000  Level FlightAware
05:59AM 47.6210 -3.7490 119° Southeast 502 578 35,000  Level FlightAware
06:00AM 47.5780 -3.6310 118° Southeast 502 578 35,000  Level FlightAware
06:01AM 47.5340 -3.5100 118° Southeast 501 577 35,000  Level FlightAware
06:01AM 47.4950 -3.4020 118° Southeast 498 573 35,000  Level FlightAware
06:02AM 47.4410 -3.2520 118° Southeast 495 570 35,000  Level FlightAware
06:03AM 47.3920 -3.1160 118° Southeast 492 566 35,000  Level FlightAware
06:04AM 47.3500 -2.9980 118° Southeast 489 563 35,000  Level FlightAware
06:04AM 47.3070 -2.8830 119° Southeast 488 562 35,000  Level FlightAware
06:05AM 47.2620 -2.7580 118° Southeast 487 560 35,000  Level FlightAware
06:06AM 47.2100 -2.6210 119° Southeast 488 562 35,000  Level FlightAware
06:06AM 47.1680 -2.5040 118° Southeast 490 564 35,000  Level FlightAware
06:07AM 47.1230 -2.3850 119° Southeast 490 564 35,000  Level FlightAware
06:08AM 47.0810 -2.2710 118° Southeast 490 564 35,000  Level FlightAware
06:09AM 47.0330 -2.1430 119° Southeast 490 564 35,000  Level FlightAware
06:09AM 46.9810 -2.0060 119° Southeast 491 565 35,000  Level FlightAware
06:10AM 46.9380 -1.8900 118° Southeast 492 566 35,000  Level FlightAware
06:11AM 46.8930 -1.7760 120° Southeast 493 567 35,000  Level FlightAware
06:11AM 46.8450 -1.6480 119° Southeast 495 570 35,000  Level FlightAware
06:12AM 46.8000 -1.5310 119° Southeast 494 568 35,000  Level FlightAware
06:13AM 46.7550 -1.4130 119° Southeast 491 565 35,000  Level FlightAware
06:13AM 46.7050 -1.2790 119° Southeast 489 563 35,000  Level FlightAware
06:14AM 46.6760 -1.1580 109° East 491 565 35,000  Level FlightAware
06:15AM 46.6540 -1.0090 102° East 492 566 35,000  Level FlightAware
06:15AM 46.6410 -0.9220 102° East 492 566 35,000  Level FlightAware
06:16AM 46.6130 -0.7310 102° East 491 565 35,000  Level FlightAware
06:17AM 46.5930 -0.5940 102° East 491 565 35,000  Level FlightAware
06:19AM 46.5460 -0.3000 103° East 488 562 35,000  Level FlightAware
06:19AM 46.5280 -0.1880 103° East 489 563 35,000  Level FlightAware
06:20AM 46.5050 -0.0470 103° East 491 565 35,000  Level FlightAware
06:21AM 46.5270 -0.1850 283° West 490 564 35,000  Level FlightAware
06:22AM 46.5070 -0.0540 102° East 490 564 35,000  Level FlightAware
06:22AM 46.4890 0.0550 103° East 490 564 35,000  Level FlightAware
06:23AM 46.4720 0.1650 103° East 490 564 35,000  Level FlightAware
06:24AM 46.4540 0.2740 103° East 490 564 35,000  Level FlightAware
06:24AM 46.4370 0.3830 103° East 490 564 35,000  Level FlightAware
06:25AM 46.4150 0.5190 103° East 490 564 35,000  Level FlightAware
06:26AM 46.3170 1.0680 104° East 492 566 35,000  Level FlightAware
06:27AM 46.2930 1.2160 103° East 490 564 35,000  Level FlightAware
06:27AM 46.2750 1.3250 103° East 490 564 35,000  Level FlightAware
06:28AM 46.2340 1.4610 114° Southeast 482 555 35,000  Level FlightAware
06:29AM 46.1830 1.5850 121° Southeast 477 549 35,000  Level FlightAware
06:29AM 46.1360 1.6950 122° Southeast 476 548 35,000  Level FlightAware
06:30AM 46.0890 1.8060 121° Southeast 473 544 35,000  Level FlightAware
06:31AM 46.0510 1.8970 121° Southeast 472 543 35,000  Level FlightAware
06:31AM 45.9930 2.0350 121° Southeast 473 544 35,000  Level FlightAware
06:32AM 45.9420 2.1580 121° Southeast 471 542 35,000  Level FlightAware
06:33AM 45.8990 2.2600 121° Southeast 471 542 35,000  Level FlightAware
06:34AM 45.8470 2.3870 120° Southeast 476 548 35,000  Level FlightAware
06:34AM 45.8040 2.4950 120° Southeast 478 550 35,000  Level FlightAware
06:35AM 45.7590 2.6070 120° Southeast 480 552 35,000  Level FlightAware
06:36AM 45.7080 2.7300 121° Southeast 479 551 35,000  Level FlightAware
06:36AM 45.6740 2.8150 120° Southeast 478 550 35,000  Level FlightAware
06:37AM 45.6140 2.9650 120° Southeast 472 543 35,000  Level FlightAware
06:38AM 45.5770 3.0570 120° Southeast 470 541 35,000  Level FlightAware
06:38AM 45.5230 3.1910 120° Southeast 470 541 35,000  Level FlightAware
06:39AM 45.4810 3.2950 120° Southeast 468 539 35,000  Level FlightAware
06:40AM 45.4380 3.3990 120° Southeast 465 535 35,000  Level FlightAware
06:41AM 45.3870 3.5200 121° Southeast 463 533 35,000  Level FlightAware
06:41AM 45.3420 3.6270 121° Southeast 464 534 35,000  Level FlightAware
06:42AM 45.2930 3.7420 121° Southeast 465 535 35,000  Level FlightAware
06:43AM 45.2490 3.8470 121° Southeast 466 536 35,000  Level FlightAware
06:43AM 45.2040 3.9510 122° Southeast 467 537 35,000  Level FlightAware
06:44AM 45.1510 4.0700 122° Southeast 467 537 35,000  Level FlightAware
06:45AM 45.1050 4.1740 122° Southeast 468 539 35,000  Level FlightAware
06:45AM 45.0540 4.2910 122° Southeast 468 539 35,000  Level FlightAware
06:46AM 45.0080 4.3950 122° Southeast 468 539 35,000  Level FlightAware
06:47AM 44.9630 4.4960 122° Southeast 470 541 35,000  Level FlightAware
06:48AM 44.9080 4.6180 122° Southeast 471 542 35,000  Level FlightAware
06:48AM 44.8640 4.7170 122° Southeast 471 542 35,000  Level FlightAware
06:49AM 44.8090 4.8380 123° Southeast 471 542 35,000  Level FlightAware
06:50AM 44.7630 4.9390 123° Southeast 470 541 35,000  Level FlightAware
06:50AM 44.7170 5.0450 121° Southeast 470 541 35,000  Level FlightAware
06:51AM 44.6660 5.1590 122° Southeast 470 541 35,000  Level FlightAware
06:52AM 44.6200 5.2600 123° Southeast 471 542 35,000  Level FlightAware
06:52AM 44.5720 5.3660 122° Southeast 472 543 35,000  Level FlightAware
06:53AM 44.5200 5.4820 122° Southeast 471 542 35,000  Level FlightAware
06:54AM 44.4710 5.5870 123° Southeast 470 541 35,000  Level FlightAware
06:55AM 44.4200 5.7000 122° Southeast 469 540 35,000  Level FlightAware
06:55AM 44.3730 5.8020 123° Southeast 471 542 35,000  Level FlightAware
06:56AM 44.3190 5.9200 123° Southeast 471 542 35,000  Level FlightAware
06:57AM 44.2740 6.0170 123° Southeast 470 541 35,000  Level FlightAware
06:57AM 44.2330 6.1060 123° Southeast 470 541 35,000  Level FlightAware
06:58AM 44.1720 6.2350 123° Southeast 469 540 35,000  Level FlightAware
06:59AM 44.1300 6.3260 123° Southeast 469 540 35,000  Level FlightAware
06:59AM 44.0710 6.4520 123° Southeast 468 539 35,000  Level FlightAware
07:00AM 44.0320 6.5350 123° Southeast 468 539 35,000  Level FlightAware
07:01AM 43.9760 6.6510 124° Southeast 468 539 35,000  Level FlightAware
07:02AM 43.9240 6.7630 123° Southeast 467 537 35,000  Level FlightAware
07:02AM 43.8810 6.8530 124° Southeast 467 537 35,000  Level FlightAware
07:03AM 43.8260 6.9680 124° Southeast 466 536 35,000  Level FlightAware
07:04AM 43.7770 7.0700 124° Southeast 468 539 35,000  Level FlightAware
07:04AM 43.7270 7.1730 124° Southeast 469 540 35,000  Level FlightAware
07:05AM 43.6720 7.2870 124° Southeast 469 540 35,000  Level FlightAware
07:06AM 43.6230 7.3890 124° Southeast 467 537 35,000  Level FlightAware
07:06AM 43.5710 7.4960 124° Southeast 467 537 35,000  Level FlightAware
07:07AM 43.5230 7.5940 124° Southeast 467 537 35,000  Level FlightAware
07:08AM 43.4740 7.6930 124° Southeast 466 536 35,000  Level FlightAware
07:08AM 43.4260 7.7910 124° Southeast 466 536 35,000  Level FlightAware
07:09AM 43.3700 7.9060 124° Southeast 467 537 35,000  Level FlightAware
07:10AM 43.3160 8.0140 124° Southeast 468 539 35,000  Level FlightAware
07:11AM 43.2720 8.1030 124° Southeast 469 540 35,000  Level FlightAware
07:11AM 43.2190 8.2080 125° Southeast 469 540 35,000  Level FlightAware
07:12AM 43.1620 8.3210 125° Southeast 471 542 35,000  Level FlightAware
07:13AM 43.1210 8.4050 124° Southeast 470 541 35,000  Level FlightAware
07:13AM 43.0590 8.5280 125° Southeast 471 542 35,000  Level FlightAware
07:14AM 43.0120 8.6210 125° Southeast 469 540 35,000  Level FlightAware
07:15AM 42.9640 8.7150 125° Southeast 475 547 35,000  Level FlightAware
07:15AM 42.9140 8.8130 125° Southeast 475 547 35,000  Level FlightAware
07:16AM 42.8570 8.9260 125° Southeast 476 548 35,000  Level FlightAware
07:17AM 42.8050 9.0270 125° Southeast 476 548 35,000  Level FlightAware
07:18AM 42.7480 9.1380 125° Southeast 476 548 35,000  Level FlightAware
07:18AM 42.6990 9.2330 125° Southeast 476 548 35,000  Level FlightAware
07:19AM 42.6480 9.3310 125° Southeast 476 548 35,000  Level FlightAware
07:20AM 42.5910 9.4410 125° Southeast 478 550 35,000  Level FlightAware
07:20AM 42.5530 9.5470 116° Southeast 484 557 35,000  Level FlightAware
07:21AM 42.5230 9.6640 109° East 485 558 35,000  Level FlightAware
07:22AM 42.4890 9.7930 110° East 485 558 35,000  Level FlightAware
07:22AM 42.4590 9.9070 110° East 485 558 35,000  Level FlightAware
07:23AM 42.4240 10.0360 110° East 485 558 35,000  Level FlightAware
07:24AM 42.3930 10.1520 110° East 486 559 35,000  Level FlightAware
07:25AM 42.3630 10.2640 110° East 484 557 35,000  Level FlightAware
07:25AM 42.3270 10.3930 111° Southeast 485 558 35,000  Level FlightAware
07:26AM 42.2960 10.5070 110° East 485 558 35,000  Level FlightAware
07:27AM 42.2610 10.6350 110° East 486 559 35,000  Level FlightAware
07:27AM 42.2290 10.7520 110° East 486 559 35,000  Level FlightAware
07:28AM 42.1930 10.8780 111° Southeast 488 562 35,000  Level FlightAware
07:29AM 42.1610 10.9950 110° East 489 563 35,000 660 Level FlightAware
07:29AM 42.1290 11.1070 111° Southeast 490 564 35,900 1,260 Climbing FlightAware
07:30AM 42.0920 11.2360 111° Southeast 488 562 36,800 720 Climbing FlightAware
07:31AM 42.0580 11.3480 112° Southeast 487 560 37,000 120 Climbing FlightAware
07:32AM 41.9970 11.4550 127° Southeast 474 545 37,000  Level FlightAware
07:32AM 41.9360 11.5420 133° Southeast 472 543 37,000  Level FlightAware
07:33AM 41.8750 11.6300 133° Southeast 474 545 37,000  Level FlightAware
07:34AM 41.8070 11.7250 134° Southeast 472 543 37,000  Level FlightAware
07:34AM 41.7460 11.8100 134° Southeast 471 542 37,000  Level FlightAware
07:35AM 41.6790 11.9030 134° Southeast 471 542 37,000  Level FlightAware
07:36AM 41.6180 11.9870 134° Southeast 472 543 37,000  Level FlightAware
07:36AM 41.5580 12.0720 133° Southeast 468 539 37,000  Level FlightAware
07:37AM 41.4900 12.1660 134° Southeast 467 537 37,000  Level FlightAware
07:38AM 41.4290 12.2510 134° Southeast 469 540 37,000  Level FlightAware
07:39AM 41.3780 12.3200 135° Southeast 475 547 37,000  Level FlightAware
07:39AM 41.2980 12.4320 134° Southeast 478 550 37,000  Level FlightAware
07:40AM 41.2380 12.5140 134° Southeast 480 552 37,000  Level FlightAware
07:41AM 41.1900 12.6120 123° Southeast 489 563 37,000  Level FlightAware
07:41AM 41.1390 12.7310 120° Southeast 488 562 37,000  Level FlightAware
07:42AM 41.0900 12.8320 123° Southeast 488 562 37,000  Level FlightAware
07:43AM 41.0350 12.9440 123° Southeast 489 563 37,000  Level FlightAware
07:43AM 40.9850 13.0440 123° Southeast 490 564 37,000  Level FlightAware
07:44AM 40.9300 13.1610 122° Southeast 491 565 37,000  Level FlightAware
07:45AM 40.8850 13.2590 121° Southeast 491 565 37,000  Level FlightAware
07:46AM 40.8360 13.3650 121° Southeast 487 560 37,000  Level FlightAware
07:46AM 40.7920 13.4590 122° Southeast 486 559 37,000  Level FlightAware
07:47AM 40.7460 13.5570 122° Southeast 486 559 37,000  Level FlightAware
07:48AM 40.6850 13.6870 122° Southeast 482 555 37,000  Level FlightAware
07:48AM 40.6260 13.8110 122° Southeast 480 552 37,000  Level FlightAware
07:49AM 40.5790 13.9130 121° Southeast 480 552 37,000  Level FlightAware
07:50AM 40.5310 14.0120 123° Southeast 481 554 37,000  Level FlightAware
07:51AM 40.4800 14.1210 122° Southeast 481 554 37,000  Level FlightAware
07:51AM 40.4370 14.2080 123° Southeast 483 556 37,000  Level FlightAware
07:52AM 40.3770 14.3350 122° Southeast 484 557 37,000  Level FlightAware
07:53AM 40.3300 14.4310 123° Southeast 484 557 37,000  Level FlightAware
07:53AM 40.2820 14.5330 122° Southeast 485 558 37,000  Level FlightAware
07:54AM 40.2280 14.6420 123° Southeast 485 558 37,000  Level FlightAware
07:55AM 40.1800 14.7410 122° Southeast 486 559 37,000  Level FlightAware
07:55AM 40.1320 14.8380 123° Southeast 485 558 37,000  Level FlightAware
07:56AM 40.0760 14.9540 122° Southeast 485 558 37,000  Level FlightAware
07:57AM 40.0290 15.0500 123° Southeast 484 557 37,000  Level FlightAware
07:58AM 39.9750 15.1580 123° Southeast 482 555 37,000  Level FlightAware
07:58AM 39.9270 15.2580 122° Southeast 479 551 37,000  Level FlightAware
07:59AM 39.8810 15.3500 123° Southeast 478 550 37,000  Level FlightAware
08:00AM 39.8240 15.4630 123° Southeast 473 544 37,000  Level FlightAware
08:00AM 39.7760 15.5610 122° Southeast 472 543 37,000  Level FlightAware
08:01AM 39.7240 15.6630 124° Southeast 474 545 37,000  Level FlightAware
08:02AM 39.6760 15.7590 123° Southeast 475 547 37,000  Level FlightAware
08:02AM 39.6270 15.8570 123° Southeast 477 549 37,000  Level FlightAware
08:03AM 39.5600 15.9880 124° Southeast 479 551 37,000  Level FlightAware
08:04AM 39.5110 16.0840 123° Southeast 479 551 37,000  Level FlightAware
08:05AM 39.4610 16.1930 121° Southeast 486 559 37,000  Level FlightAware
08:05AM 39.4240 16.3030 114° Southeast 492 566 37,000  Level FlightAware
08:06AM 39.3890 16.4120 113° Southeast 493 567 37,000  Level FlightAware
08:07AM 39.3500 16.5340 112° Southeast 492 566 37,000  Level FlightAware
08:07AM 39.3140 16.6430 113° Southeast 493 567 37,000  Level FlightAware
08:08AM 39.2760 16.7620 112° Southeast 493 567 37,000  Level FlightAware
08:09AM 39.2400 16.8700 113° Southeast 492 566 37,000  Level FlightAware
08:10AM 39.2040 16.9820 112° Southeast 493 567 37,000  Level FlightAware
08:10AM 39.1760 17.0650 113° Southeast 493 567 37,000  Level FlightAware
08:11AM 39.1410 17.1740 112° Southeast 495 570 37,000  Level FlightAware
08:12AM 39.1060 17.2790 113° Southeast 495 570 37,000  Level FlightAware
08:12AM 39.0680 17.3910 114° Southeast 496 571 37,000  Level FlightAware
08:13AM 39.0140 17.5540 113° Southeast 497 572 37,000  Level FlightAware
08:14AM 38.9730 17.6750 114° Southeast 491 565 37,000  Level FlightAware
08:15AM 38.9310 17.8010 113° Southeast 489 563 37,000  Level FlightAware
08:15AM 38.9020 17.8880 113° Southeast 488 562 37,000  Level FlightAware
08:16AM 38.8610 18.0080 114° Southeast 489 563 37,000  Level FlightAware
08:17AM 38.8210 18.1250 114° Southeast 490 564 37,000  Level FlightAware
08:17AM 38.7870 18.2260 113° Southeast 492 566 37,000  Level FlightAware
08:18AM 38.7410 18.3600 114° Southeast 493 567 37,000  Level FlightAware
08:19AM 38.7060 18.4610 114° Southeast 493 567 37,000  Level FlightAware
08:20AM 38.6650 18.5780 114° Southeast 491 565 37,000  Level FlightAware
08:20AM 38.6270 18.6870 114° Southeast 490 564 37,000  Level FlightAware
08:21AM 38.5880 18.8010 114° Southeast 488 562 37,000  Level FlightAware
08:22AM 38.5520 18.9030 114° Southeast 488 562 37,000  Level FlightAware
08:22AM 38.5190 19.0030 113° Southeast 488 562 37,000  Level FlightAware
08:23AM 38.4810 19.1160 113° Southeast 488 562 37,000  Level FlightAware
08:24AM 38.4560 19.2380 105° East 488 562 37,000  Level FlightAware
08:25AM 38.4230 19.3620 109° East 489 563 37,000  Level FlightAware
08:25AM 38.3910 19.4840 108° East 488 562 37,000  Level FlightAware
08:26AM 38.3560 19.6120 109° East 488 562 37,000  Level FlightAware
08:27AM 38.3270 19.7220 109° East 491 565 37,000  Level FlightAware
08:27AM 38.2960 19.8340 109° East 493 567 37,000  Level FlightAware
08:28AM 38.2640 19.9520 109° East 495 570 37,000  Level FlightAware
08:29AM 38.1990 20.1930 109° East 500 575 37,000  Level FlightAware
08:30AM 38.1650 20.3150 109° East 500 575 37,000  Level FlightAware
08:31AM 38.1350 20.4250 109° East 500 575 37,000  Level FlightAware
08:31AM 38.1050 20.5240 111° Southeast 499 574 37,000  Level FlightAware
08:32AM 38.0570 20.6540 115° Southeast 499 574 37,000  Level FlightAware
08:33AM 38.0240 20.7420 115° Southeast 500 575 37,000  Level FlightAware
08:34AM 37.9710 20.8810 116° Southeast 500 575 37,000  Level FlightAware
08:35AM 37.9160 21.0260 116° Southeast 498 573 37,000  Level FlightAware
08:35AM 37.8750 21.1310 116° Southeast 497 572 37,000  Level FlightAware
08:36AM 37.8410 21.2220 115° Southeast 497 572 37,000  Level FlightAware
08:37AM 37.7920 21.3470 116° Southeast 497 572 37,000  Level FlightAware
08:37AM 37.7550 21.4440 116° Southeast 498 573 37,000  Level FlightAware
08:38AM 37.7040 21.5750 116° Southeast 499 574 37,000  Level FlightAware
08:39AM 37.6640 21.6790 116° Southeast 499 574 37,000  Level FlightAware
08:39AM 37.6190 21.7950 116° Southeast 502 578 37,000  Level FlightAware
08:40AM 37.5780 21.9000 116° Southeast 504 580 37,000  Level FlightAware
08:41AM 37.5350 22.0080 117° Southeast 506 582 37,000  Level FlightAware
08:42AM 37.4890 22.1240 117° Southeast 508 585 37,000  Level FlightAware
08:42AM 37.4460 22.2330 116° Southeast 509 586 37,000  Level FlightAware
08:43AM 37.4020 22.3510 115° Southeast 510 587 37,000  Level FlightAware
08:44AM 37.3670 22.4640 111° Southeast 509 586 37,000  Level FlightAware
08:44AM 37.3310 22.5890 110° East 507 583 37,000  Level FlightAware
08:45AM 37.3030 22.6860 110° East 505 581 37,000  Level FlightAware
08:46AM 37.2660 22.8120 110° East 503 579 37,000  Level FlightAware
08:46AM 37.2360 22.9160 110° East 500 575 37,000  Level FlightAware
08:47AM 37.1990 23.0400 111° Southeast 494 568 37,000  Level FlightAware
08:48AM 37.1630 23.1570 111° Southeast 491 565 37,000  Level FlightAware
08:49AM 37.1270 23.2610 113° Southeast 490 564 37,000  Level FlightAware
08:49AM 37.0910 23.3650 113° Southeast 490 564 37,000  Level FlightAware
08:50AM 37.0510 23.4800 114° Southeast 491 565 37,000  Level FlightAware
08:51AM 37.0140 23.5930 112° Southeast 492 566 37,000  Level FlightAware
08:51AM 36.9750 23.7060 113° Southeast 493 567 37,000  Level FlightAware
08:52AM 36.9480 23.7850 113° Southeast 494 568 37,000  Level FlightAware
08:52AM 36.9160 23.8790 113° Southeast 495 570 37,000  Level FlightAware
08:53AM 36.8760 23.9940 113° Southeast 496 571 37,000  Level FlightAware
08:54AM 36.8330 24.1180 113° Southeast 498 573 37,000  Level FlightAware
08:55AM 36.7970 24.2220 113° Southeast 501 577 37,000  Level FlightAware
08:55AM 36.7600 24.3280 114° Southeast 502 578 37,000  Level FlightAware
08:56AM 36.7190 24.4420 114° Southeast 504 580 37,000  Level FlightAware
08:57AM 36.6840 24.5430 113° Southeast 505 581 37,000  Level FlightAware
08:57AM 36.6380 24.6730 114° Southeast 505 581 37,000  Level FlightAware
08:58AM 36.6090 24.7560 114° Southeast 504 580 37,000  Level FlightAware
08:59AM 36.5640 24.8810 114° Southeast 505 581 37,000  Level FlightAware
08:59AM 36.5250 24.9920 114° Southeast 505 581 37,000  Level FlightAware
09:00AM 36.4820 25.1110 114° Southeast 504 580 37,000  Level FlightAware
09:01AM 36.4290 25.2590 114° Southeast 505 581 37,000  Level FlightAware
09:02AM 36.3960 25.3470 115° Southeast 504 580 37,000  Level FlightAware
09:02AM 36.3590 25.4530 113° Southeast 504 580 37,000  Level FlightAware
09:03AM 36.3270 25.5430 114° Southeast 504 580 37,000  Level FlightAware
09:04AM 36.2860 25.6550 114° Southeast 504 580 37,000  Level FlightAware
09:05AM 36.2270 25.8130 115° Southeast 503 579 37,000  Level FlightAware
09:05AM 36.1960 25.8970 115° Southeast 502 578 37,000  Level FlightAware
09:06AM 36.1570 26.0060 114° Southeast 502 578 37,000  Level FlightAware
09:07AM 36.1060 26.1390 115° Southeast 501 577 37,000  Level FlightAware
09:07AM 36.0750 26.2260 114° Southeast 501 577 37,000  Level FlightAware
09:08AM 36.0430 26.3150 114° Southeast 501 577 37,000  Level FlightAware
09:09AM 36.0030 26.4260 114° Southeast 501 577 37,000  Level FlightAware
09:10AM 35.9710 26.5150 114° Southeast 501 577 37,000  Level FlightAware
09:10AM 35.9390 26.6040 114° Southeast 501 577 37,000  Level FlightAware
09:11AM 35.8600 26.7960 117° Southeast 502 578 37,000  Level FlightAware
09:12AM 35.8140 26.9180 115° Southeast 504 580 37,000  Level FlightAware
09:12AM 35.7750 27.0170 116° Southeast 506 582 37,000  Level FlightAware
09:13AM 35.7450 27.0970 115° Southeast 506 582 37,000  Level FlightAware
09:14AM 35.7030 27.2080 115° Southeast 506 582 37,000  Level FlightAware
09:14AM 35.6780 27.2750 115° Southeast 506 582 37,000  Level FlightAware
09:15AM 35.6360 27.3860 115° Southeast 506 582 37,000  Level FlightAware
09:16AM 35.6020 27.4740 115° Southeast 506 582 37,000  Level FlightAware
09:16AM 35.5680 27.5630 115° Southeast 506 582 37,000  Level FlightAware
09:17AM 35.5350 27.6520 114° Southeast 506 582 37,000 780 Level FlightAware
09:18AM 35.4440 27.8760 116° Southeast 38,100 1,080 Climbing FlightAware
09:19AM 35.3840 28.0260 116° Southeast 500 575 38,900 540 Climbing FlightAware
09:20AM 35.3390 28.1410 116° Southeast 500 575 39,000 60 Climbing FlightAware
09:20AM 35.2980 28.2460 116° Southeast 500 575 39,000  Level FlightAware
09:21AM 35.2540 28.3570 116° Southeast 499 574 39,000  Level FlightAware
09:22AM 35.2130 28.4590 116° Southeast 499 574 39,000  Level FlightAware
09:22AM 35.1730 28.5580 116° Southeast 499 574 39,000  Level FlightAware
09:23AM 35.1220 28.6870 116° Southeast 497 572 39,000  Level FlightAware
09:24AM 35.0780 28.7960 116° Southeast 503 579 39,000  Level FlightAware
09:25AM 35.0300 28.9130 117° Southeast 504 580 39,000  Level FlightAware
09:25AM 34.9890 29.0160 116° Southeast 505 581 39,000  Level FlightAware
09:26AM 34.9350 29.1490 116° Southeast 505 581 39,000  Level FlightAware
09:27AM 34.9000 29.2360 116° Southeast 505 581 39,000  Level FlightAware
09:28AM 34.8460 29.3670 117° Southeast 504 580 39,000  Level FlightAware
09:28AM 34.7970 29.4830 117° Southeast 503 579 39,000  Level FlightAware
09:29AM 34.7510 29.5970 116° Southeast 502 578 39,000  Level FlightAware
09:30AM 34.7090 29.6980 117° Southeast 502 578 39,000  Level FlightAware
09:31AM 34.6610 29.8130 117° Southeast 502 578 39,000  Level FlightAware
09:31AM 34.6240 29.8980 118° Southeast 502 578 39,000  Level FlightAware
09:32AM 34.5870 29.9830 118° Southeast 502 578 39,000  Level FlightAware
09:33AM 34.5210 30.1060 123° Southeast 497 572 39,000  Level FlightAware
09:33AM 34.4770 30.1990 120° Southeast 497 572 39,000  Level FlightAware
09:34AM 34.4220 30.3150 120° Southeast 498 573 39,000  Level FlightAware
09:35AM 34.3710 30.4230 120° Southeast 499 574 39,000  Level FlightAware
09:35AM 34.3240 30.5200 120° Southeast 499 574 39,000  Level FlightAware
09:36AM 34.2710 30.6290 120° Southeast 499 574 39,000  Level FlightAware
09:37AM 34.2370 30.7020 119° Southeast 500 575 39,000  Level FlightAware
09:38AM 34.1770 30.8260 120° Southeast 505 581 39,000  Level FlightAware
09:39AM 34.0700 31.0450 120° Southeast 505 581 39,000  Level FlightAware
09:40AM 34.0180 31.1520 120° Southeast 505 581 39,000  Level FlightAware
09:41AM 33.9610 31.2680 121° Southeast 507 583 39,000  Level FlightAware
09:41AM 33.9130 31.3680 120° Southeast 506 582 39,000  Level FlightAware
09:42AM 33.8610 31.4720 121° Southeast 506 582 39,000  Level FlightAware
09:43AM 33.8110 31.5740 121° Southeast 506 582 39,000  Level FlightAware
09:43AM 33.7630 31.6710 121° Southeast 507 583 39,000  Level FlightAware
09:44AM 33.7080 31.7820 121° Southeast 506 582 39,000 -120 Level FlightAware
09:45AM 33.6610 31.8760 121° Southeast 506 582 38,900  Descending FlightAware
09:46AM 33.6060 31.9840 121° Southeast 506 582 39,000 60 Climbing FlightAware
09:46AM 33.5580 32.0810 121° Southeast 505 581 39,000  Level FlightAware
09:47AM 33.5100 32.1770 121° Southeast 505 581 39,000  Level FlightAware
09:48AM 33.4560 32.2850 121° Southeast 506 582 39,000  Level FlightAware
09:48AM 33.4070 32.3810 121° Southeast 507 583 39,000  Level FlightAware
09:49AM 33.3520 32.4910 121° Southeast 507 583 39,000 -120 Level FlightAware
09:50AM 33.3090 32.5730 122° Southeast 507 583 38,900 -1,320 Descending FlightAware
09:50AM 33.2510 32.6880 121° Southeast 503 579 37,200 -2,100 Descending FlightAware
09:51AM 33.2050 32.7770 122° Southeast 487 560 36,000 -2,580 Descending FlightAware
09:53AM 33.1050 32.9720 121° Southeast 481 554 31,900 -2,820 Descending FlightAware
09:53AM 33.0550 33.0690 122° Southeast 476 548 30,000 -2,820 Descending FlightAware
09:54AM 33.0090 33.1600 121° Southeast 467 537 28,200 -3,060 Descending FlightAware
09:55AM 32.9580 33.2590 122° Southeast 465 535 25,700 -3,180 Descending FlightAware
09:55AM 32.9100 33.3460 123° Southeast 452 520 23,700 -2,880 Descending FlightAware
09:56AM 32.8620 33.4230 127° Southeast 441 507 21,900 -2,700 Descending FlightAware
09:57AM 32.8070 33.5120 126° Southeast 437 503 19,900 -2,940 Descending FlightAware
09:57AM 32.7540 33.6010 125° Southeast 429 494 17,500 -2,880 Descending FlightAware
09:58AM 32.7100 33.6730 126° Southeast 417 480 15,900 -1,920 Descending FlightAware
09:59AM 32.6660 33.7480 125° Southeast 400 460 15,000 -1,200 Descending FlightAware
10:00AM 32.6180 33.8260 126° Southeast 378 435 14,200 -960 Descending FlightAware
10:00AM 32.5780 33.8920 126° Southeast 361 415 13,700 -840 Descending FlightAware
10:01AM 32.5390 33.9570 125° Southeast 347 399 13,100 -1,020 Descending FlightAware
10:02AM 32.4980 34.0240 126° Southeast 340 391 12,300 -1,140 Descending FlightAware
10:02AM 32.4620 34.0830 126° Southeast 338 389 11,500 -1,200 Descending FlightAware
10:03AM 32.4200 34.1520 126° Southeast 335 386 10,600 -840 Descending FlightAware
10:05AM 32.3340 34.2930 126° Southeast 286 329 9,500 -780 Descending FlightAware
10:05AM 32.3060 34.3380 126° Southeast 279 321 8,800 -720 Descending FlightAware
10:06AM 32.2780 34.3850 125° Southeast 277 319 8,600 -960 Descending FlightAware
10:07AM 32.2550 34.4200 128° Southeast 275 316 7,700 -1,140 Descending FlightAware
10:07AM 32.2290 34.4630 126° Southeast 274 315 7,400 -540 Descending FlightAware
10:10AM 32.0542 34.7728 115° Southeast  Level FlightAware Approximate
10:11AM 32.0000 34.8667 125° Southeast  Level FlightAware Approximate
10:12AM 32.0095 34.8769 125° Southeast  Level Estimated
10:13AM 32.0095 34.8769 125° Southeast  Level Estimated
10:14AM 32.0095 34.8769 125° Southeast  Level Estimated
10:15AM 32.0095 34.8769 125° Southeast  Level Estimated
10:16AM 32.0095 34.8769 125° Southeast  Level Estimated
10:17AM 32.0095 34.8769 125° Southeast  Level Estimated
10:18AM 32.0095 34.8769 125° Southeast  Level Estimated
10:19AM 32.0095 34.8769 125° Southeast  Level Estimated